»·PEaware :: N2477M KBFL-KFAT

N2477M :: KBFL-KFAT

FLIGHT INFORMATION

Flight Status: Arrived
Operator: Privately registered:
United States
More flights under this callsign
Pilot: Greg W. (23145)
Aircraft: PIPER PA-28R-201 ARROW
(P28R)
More flights by this aircraft type
Origin: KBFL Meadows
United States
Destination: KFAT Fresno Yosemite Intl
United States
More flights between these airports :: More routes between these airports
Route: +
File this flight plan on PilotEdge
Remarks:
Altitude:
(Current/Filed)
0ft
Speed:
(Current/Filed)
0kts
Departed: 30-Sep-19 04:20 PM
Arrived: 30-Sep-19 05:11 PM
Distance/Time
Traveled:
87nm/0:50
Distance/Time
To Go:
Arrived

Flight Plot

Page will automatically refresh every two minutes.


Map Options




Map Legend


Flown Route
Filed Route
Departure Airport
Arrival Airport
Navaid (VOR, NDB)
Fix

Horizontal Profiles

Position Reports

Time Latitude Longitude Heading Altitude Ground
Speed
30-Sep-19 16:08 35.429370 -119.046102 226 496ft 0kts
30-Sep-19 16:09 35.429370 -119.046102 226 496ft 0kts
30-Sep-19 16:10 35.429370 -119.046102 226 496ft 0kts
30-Sep-19 16:11 35.429102 -119.046183 152 496ft 1kts
30-Sep-19 16:12 35.427305 -119.044566 170 496ft 0kts
30-Sep-19 16:13 35.427305 -119.044566 173 496ft 0kts
30-Sep-19 16:14 35.427305 -119.044566 173 496ft 0kts
30-Sep-19 16:15 35.427304 -119.044565 170 496ft 0kts
30-Sep-19 16:16 35.425859 -119.044573 200 496ft 8kts
30-Sep-19 16:17 35.425674 -119.044786 238 496ft 0kts
30-Sep-19 16:18 35.425579 -119.046040 291 496ft 25kts
30-Sep-19 16:19 35.440026 -119.063744 319 1146ft 83kts
30-Sep-19 16:20 35.459747 -119.078281 5 2026ft 91kts
30-Sep-19 16:21 35.481965 -119.073315 4 2775ft 92kts
30-Sep-19 16:22 35.507001 -119.077318 340 3541ft 92kts
30-Sep-19 16:23 35.531757 -119.082084 0 4253ft 96kts
30-Sep-19 16:24 35.557990 -119.082308 338 4906ft 94kts
30-Sep-19 16:25 35.582952 -119.091941 337 5400ft 107kts
30-Sep-19 16:26 35.612131 -119.103658 353 5527ft 117kts
30-Sep-19 16:27 35.644450 -119.105194 354 5339ft 105kts
30-Sep-19 16:28 35.675967 -119.104298 0 5550ft 119kts
30-Sep-19 16:29 35.706933 -119.101527 358 5620ft 123kts
30-Sep-19 16:30 35.737286 -119.100908 358 5586ft 127kts
30-Sep-19 16:31 35.772701 -119.100817 352 5543ft 128kts
30-Sep-19 16:32 35.808232 -119.105399 352 5492ft 128kts
30-Sep-19 16:33 35.843929 -119.110186 352 5451ft 129kts
30-Sep-19 16:34 35.879412 -119.114985 352 5420ft 129kts
30-Sep-19 16:35 35.914906 -119.122806 347 5390ft 129kts
30-Sep-19 16:36 35.950107 -119.131618 348 5392ft 127kts
30-Sep-19 16:37 35.984208 -119.140081 348 5546ft 125kts
30-Sep-19 16:38 36.018508 -119.150682 345 5614ft 126kts
30-Sep-19 16:39 36.052805 -119.161248 345 5550ft 131kts
30-Sep-19 16:40 36.087407 -119.171490 345 5511ft 130kts
30-Sep-19 16:41 36.120493 -119.180815 346 5313ft 136kts
30-Sep-19 16:42 36.156782 -119.191616 341 4582ft 128kts
30-Sep-19 16:43 36.188422 -119.203545 341 4532ft 108kts
30-Sep-19 16:44 36.217949 -119.214315 341 4497ft 111kts
30-Sep-19 16:45 36.247406 -119.224809 341 4496ft 110kts
30-Sep-19 16:46 36.277039 -119.235123 341 4489ft 110kts
30-Sep-19 16:48 36.306431 -119.245093 341 4504ft 109kts
30-Sep-19 16:49 36.336066 -119.254899 341 4512ft 110kts
30-Sep-19 16:50 36.365713 -119.264435 341 4517ft 110kts
30-Sep-19 16:51 36.395570 -119.273805 341 4521ft 110kts
30-Sep-19 16:52 36.425408 -119.282988 342 4524ft 110kts
30-Sep-19 16:53 36.455235 -119.292047 342 4529ft 110kts
30-Sep-19 16:54 36.485112 -119.301015 342 4532ft 110kts
30-Sep-19 16:55 36.514234 -119.310794 342 4548ft 108kts
30-Sep-19 16:56 36.543151 -119.321220 342 4544ft 108kts
30-Sep-19 16:57 36.566890 -119.343029 313 4513ft 109kts
30-Sep-19 16:58 36.587380 -119.370091 313 4527ft 107kts
30-Sep-19 16:59 36.607951 -119.396652 314 4530ft 106kts
30-Sep-19 17:00 36.626505 -119.424758 307 4530ft 105kts
30-Sep-19 17:01 36.642936 -119.455091 303 4529ft 105kts
30-Sep-19 17:02 36.659492 -119.485150 303 4506ft 105kts
30-Sep-19 17:03 36.675741 -119.515285 294 4478ft 104kts
30-Sep-19 17:04 36.688237 -119.548785 293 4262ft 111kts
30-Sep-19 17:05 36.702080 -119.583821 299 3833ft 117kts
30-Sep-19 17:06 36.718495 -119.617585 300 2977ft 110kts
30-Sep-19 17:06 36.731361 -119.642663 303 2060ft 94kts
30-Sep-19 17:08 36.747860 -119.670575 302 1165ft 76kts
30-Sep-19 17:09 36.759662 -119.691208 300 752ft 66kts
30-Sep-19 17:09 36.768506 -119.706883 303 431ft 66kts
30-Sep-19 17:10 36.772746 -119.715661 220 328ft 0kts
30-Sep-19 17:12 36.774074 -119.720997 302 328ft 22kts

Navigation Log

Ident Type
Flight plan parsing failed, navigation log unavailable